sensor_id;sensor_type;location;lat;lon;timestamp;P1;durP1;ratioP1;P2;durP2;ratioP2
26325;SDS011;14032;52.510;7.342;2023-11-19T00:00:27;16.13;;;12.27;;
26325;SDS011;14032;52.510;7.342;2023-11-19T00:02:52;16.95;;;13.23;;
26325;SDS011;14032;52.510;7.342;2023-11-19T00:05:18;15.02;;;11.80;;
26325;SDS011;14032;52.510;7.342;2023-11-19T00:07:44;20.52;;;12.73;;
26325;SDS011;14032;52.510;7.342;2023-11-19T00:10:10;17.08;;;12.82;;
26325;SDS011;14032;52.510;7.342;2023-11-19T00:12:37;16.58;;;11.50;;
26325;SDS011;14032;52.510;7.342;2023-11-19T00:15:05;17.25;;;12.60;;
26325;SDS011;14032;52.510;7.342;2023-11-19T00:17:31;17.63;;;12.35;;
26325;SDS011;14032;52.510;7.342;2023-11-19T00:19:57;17.02;;;13.05;;
26325;SDS011;14032;52.510;7.342;2023-11-19T00:22:22;18.58;;;13.40;;
26325;SDS011;14032;52.510;7.342;2023-11-19T00:24:48;20.88;;;13.88;;
26325;SDS011;14032;52.510;7.342;2023-11-19T00:27:13;24.73;;;15.07;;
26325;SDS011;14032;52.510;7.342;2023-11-19T00:29:40;19.83;;;13.77;;
26325;SDS011;14032;52.510;7.342;2023-11-19T00:32:05;22.60;;;15.27;;
26325;SDS011;14032;52.510;7.342;2023-11-19T00:34:32;22.45;;;14.27;;
26325;SDS011;14032;52.510;7.342;2023-11-19T00:36:58;19.45;;;14.35;;
26325;SDS011;14032;52.510;7.342;2023-11-19T00:39:23;20.35;;;14.98;;
26325;SDS011;14032;52.510;7.342;2023-11-19T00:41:49;19.20;;;13.95;;
26325;SDS011;14032;52.510;7.342;2023-11-19T00:44:14;18.85;;;14.18;;
26325;SDS011;14032;52.510;7.342;2023-11-19T00:46:40;22.58;;;13.88;;
26325;SDS011;14032;52.510;7.342;2023-11-19T00:49:05;24.00;;;14.43;;
26325;SDS011;14032;52.510;7.342;2023-11-19T00:51:31;20.20;;;15.05;;
26325;SDS011;14032;52.510;7.342;2023-11-19T00:53:57;26.55;;;15.45;;
26325;SDS011;14032;52.510;7.342;2023-11-19T00:56:24;21.92;;;15.43;;
26325;SDS011;14032;52.510;7.342;2023-11-19T00:58:49;22.20;;;15.27;;
26325;SDS011;14032;52.510;7.342;2023-11-19T01:01:15;26.88;;;14.65;;
26325;SDS011;14032;52.510;7.342;2023-11-19T01:03:40;21.58;;;14.63;;
26325;SDS011;14032;52.510;7.342;2023-11-19T01:06:06;23.23;;;15.68;;
26325;SDS011;14032;52.510;7.342;2023-11-19T01:08:33;23.42;;;15.63;;
26325;SDS011;14032;52.510;7.342;2023-11-19T01:11:00;23.45;;;15.88;;
26325;SDS011;14032;52.510;7.342;2023-11-19T01:13:27;21.95;;;15.73;;
26325;SDS011;14032;52.510;7.342;2023-11-19T01:15:53;22.98;;;16.67;;
26325;SDS011;14032;52.510;7.342;2023-11-19T01:18:18;23.55;;;17.63;;
26325;SDS011;14032;52.510;7.342;2023-11-19T01:20:44;27.10;;;17.10;;
26325;SDS011;14032;52.510;7.342;2023-11-19T01:23:09;27.73;;;17.92;;
26325;SDS011;14032;52.510;7.342;2023-11-19T01:25:36;25.70;;;17.90;;
26325;SDS011;14032;52.510;7.342;2023-11-19T01:28:03;29.40;;;19.25;;
26325;SDS011;14032;52.510;7.342;2023-11-19T01:30:29;29.95;;;18.58;;
26325;SDS011;14032;52.510;7.342;2023-11-19T01:32:55;27.90;;;17.88;;
26325;SDS011;14032;52.510;7.342;2023-11-19T01:35:21;27.75;;;18.42;;
26325;SDS011;14032;52.510;7.342;2023-11-19T01:37:48;25.92;;;18.17;;
26325;SDS011;14032;52.510;7.342;2023-11-19T01:40:13;30.77;;;19.10;;
26325;SDS011;14032;52.510;7.342;2023-11-19T01:42:40;31.13;;;20.30;;
26325;SDS011;14032;52.510;7.342;2023-11-19T01:45:06;33.35;;;19.52;;
26325;SDS011;14032;52.510;7.342;2023-11-19T01:47:34;36.83;;;21.00;;
26325;SDS011;14032;52.510;7.342;2023-11-19T01:50:00;28.73;;;19.45;;
26325;SDS011;14032;52.510;7.342;2023-11-19T01:52:31;38.42;;;20.73;;
26325;SDS011;14032;52.510;7.342;2023-11-19T01:54:59;36.38;;;21.08;;
26325;SDS011;14032;52.510;7.342;2023-11-19T01:57:25;32.33;;;19.92;;
26325;SDS011;14032;52.510;7.342;2023-11-19T01:59:51;35.50;;;21.10;;
26325;SDS011;14032;52.510;7.342;2023-11-19T02:02:18;35.50;;;20.92;;
26325;SDS011;14032;52.510;7.342;2023-11-19T02:04:46;37.30;;;21.10;;
26325;SDS011;14032;52.510;7.342;2023-11-19T02:07:15;35.90;;;21.13;;
26325;SDS011;14032;52.510;7.342;2023-11-19T02:09:42;45.45;;;22.02;;
26325;SDS011;14032;52.510;7.342;2023-11-19T02:12:09;40.45;;;21.25;;
26325;SDS011;14032;52.510;7.342;2023-11-19T02:14:36;41.22;;;21.80;;
26325;SDS011;14032;52.510;7.342;2023-11-19T02:17:02;43.58;;;22.75;;
26325;SDS011;14032;52.510;7.342;2023-11-19T02:19:28;36.08;;;21.80;;
26325;SDS011;14032;52.510;7.342;2023-11-19T02:21:54;45.25;;;23.95;;
26325;SDS011;14032;52.510;7.342;2023-11-19T02:24:21;45.58;;;23.67;;
26325;SDS011;14032;52.510;7.342;2023-11-19T02:29:22;46.35;;;23.73;;
26325;SDS011;14032;52.510;7.342;2023-11-19T02:31:47;39.72;;;22.77;;
26325;SDS011;14032;52.510;7.342;2023-11-19T02:34:13;35.97;;;20.92;;
26325;SDS011;14032;52.510;7.342;2023-11-19T02:36:39;38.20;;;21.55;;
26325;SDS011;14032;52.510;7.342;2023-11-19T02:39:06;50.35;;;22.85;;
26325;SDS011;14032;52.510;7.342;2023-11-19T02:41:37;42.22;;;22.63;;
26325;SDS011;14032;52.510;7.342;2023-11-19T02:44:04;42.92;;;21.63;;
26325;SDS011;14032;52.510;7.342;2023-11-19T02:46:31;37.28;;;20.20;;
26325;SDS011;14032;52.510;7.342;2023-11-19T02:48:57;47.63;;;20.92;;
26325;SDS011;14032;52.510;7.342;2023-11-19T02:51:22;36.67;;;20.08;;
26325;SDS011;14032;52.510;7.342;2023-11-19T02:53:48;40.47;;;18.33;;
26325;SDS011;14032;52.510;7.342;2023-11-19T02:56:14;40.47;;;19.70;;
26325;SDS011;14032;52.510;7.342;2023-11-19T02:58:50;42.15;;;19.05;;
26325;SDS011;14032;52.510;7.342;2023-11-19T03:01:23;37.33;;;18.48;;
26325;SDS011;14032;52.510;7.342;2023-11-19T03:03:56;44.08;;;18.38;;
26325;SDS011;14032;52.510;7.342;2023-11-19T03:06:23;41.20;;;18.52;;
26325;SDS011;14032;52.510;7.342;2023-11-19T03:08:49;37.65;;;17.35;;
26325;SDS011;14032;52.510;7.342;2023-11-19T03:11:15;40.38;;;18.15;;
26325;SDS011;14032;52.510;7.342;2023-11-19T03:13:40;43.65;;;16.88;;
26325;SDS011;14032;52.510;7.342;2023-11-19T03:16:06;40.35;;;17.63;;
26325;SDS011;14032;52.510;7.342;2023-11-19T03:18:32;41.65;;;17.48;;
26325;SDS011;14032;52.510;7.342;2023-11-19T03:20:58;43.08;;;18.02;;
26325;SDS011;14032;52.510;7.342;2023-11-19T03:23:23;41.88;;;16.88;;
26325;SDS011;14032;52.510;7.342;2023-11-19T03:25:52;51.55;;;17.08;;
26325;SDS011;14032;52.510;7.342;2023-11-19T03:28:19;44.58;;;17.20;;
26325;SDS011;14032;52.510;7.342;2023-11-19T03:30:44;46.83;;;16.52;;
26325;SDS011;14032;52.510;7.342;2023-11-19T03:33:10;47.88;;;17.02;;
26325;SDS011;14032;52.510;7.342;2023-11-19T03:35:35;45.78;;;14.88;;
26325;SDS011;14032;52.510;7.342;2023-11-19T03:38:01;35.72;;;13.27;;
26325;SDS011;14032;52.510;7.342;2023-11-19T03:40:27;36.45;;;14.18;;
26325;SDS011;14032;52.510;7.342;2023-11-19T03:42:54;39.70;;;14.43;;
26325;SDS011;14032;52.510;7.342;2023-11-19T03:45:22;41.55;;;14.00;;
26325;SDS011;14032;52.510;7.342;2023-11-19T03:47:47;46.05;;;15.07;;
26325;SDS011;14032;52.510;7.342;2023-11-19T03:50:15;48.10;;;14.20;;
26325;SDS011;14032;52.510;7.342;2023-11-19T03:52:40;44.95;;;13.85;;
26325;SDS011;14032;52.510;7.342;2023-11-19T03:55:06;43.08;;;13.88;;
26325;SDS011;14032;52.510;7.342;2023-11-19T03:57:33;47.33;;;12.88;;
26325;SDS011;14032;52.510;7.342;2023-11-19T03:59:59;37.30;;;12.90;;
26325;SDS011;14032;52.510;7.342;2023-11-19T04:02:27;61.42;;;12.75;;
26325;SDS011;14032;52.510;7.342;2023-11-19T04:04:53;51.83;;;12.00;;
26325;SDS011;14032;52.510;7.342;2023-11-19T04:07:20;43.75;;;10.80;;
26325;SDS011;14032;52.510;7.342;2023-11-19T04:09:45;45.05;;;11.25;;
26325;SDS011;14032;52.510;7.342;2023-11-19T04:12:11;38.78;;;9.88;;
26325;SDS011;14032;52.510;7.342;2023-11-19T04:14:37;48.13;;;9.93;;
26325;SDS011;14032;52.510;7.342;2023-11-19T04:17:03;45.85;;;10.18;;
26325;SDS011;14032;52.510;7.342;2023-11-19T04:19:28;40.08;;;9.52;;
26325;SDS011;14032;52.510;7.342;2023-11-19T04:21:54;55.13;;;9.82;;
26325;SDS011;14032;52.510;7.342;2023-11-19T04:24:19;55.15;;;10.38;;
26325;SDS011;14032;52.510;7.342;2023-11-19T04:26:45;42.05;;;8.82;;
26325;SDS011;14032;52.510;7.342;2023-11-19T04:29:12;47.15;;;8.90;;
26325;SDS011;14032;52.510;7.342;2023-11-19T04:31:39;60.13;;;8.00;;
26325;SDS011;14032;52.510;7.342;2023-11-19T04:34:05;42.55;;;8.32;;
26325;SDS011;14032;52.510;7.342;2023-11-19T04:36:31;51.67;;;8.25;;
26325;SDS011;14032;52.510;7.342;2023-11-19T04:38:58;50.45;;;9.75;;
26325;SDS011;14032;52.510;7.342;2023-11-19T04:41:24;55.38;;;8.60;;
26325;SDS011;14032;52.510;7.342;2023-11-19T04:43:50;52.78;;;8.63;;
26325;SDS011;14032;52.510;7.342;2023-11-19T04:46:16;49.40;;;7.35;;
26325;SDS011;14032;52.510;7.342;2023-11-19T04:48:42;52.83;;;8.00;;
26325;SDS011;14032;52.510;7.342;2023-11-19T04:51:07;48.17;;;7.65;;
26325;SDS011;14032;52.510;7.342;2023-11-19T04:53:34;50.13;;;8.05;;
26325;SDS011;14032;52.510;7.342;2023-11-19T04:56:00;44.17;;;8.15;;
26325;SDS011;14032;52.510;7.342;2023-11-19T04:58:25;51.85;;;7.75;;
26325;SDS011;14032;52.510;7.342;2023-11-19T05:00:54;59.40;;;9.00;;
26325;SDS011;14032;52.510;7.342;2023-11-19T05:03:19;58.78;;;7.93;;
26325;SDS011;14032;52.510;7.342;2023-11-19T05:05:45;53.80;;;7.80;;
26325;SDS011;14032;52.510;7.342;2023-11-19T05:08:10;61.83;;;7.25;;
26325;SDS011;14032;52.510;7.342;2023-11-19T05:10:36;62.55;;;8.23;;
26325;SDS011;14032;52.510;7.342;2023-11-19T05:13:02;48.03;;;8.05;;
26325;SDS011;14032;52.510;7.342;2023-11-19T05:15:27;51.83;;;7.93;;
26325;SDS011;14032;52.510;7.342;2023-11-19T05:17:53;58.88;;;8.23;;
26325;SDS011;14032;52.510;7.342;2023-11-19T05:20:18;55.38;;;8.13;;
26325;SDS011;14032;52.510;7.342;2023-11-19T05:22:44;54.00;;;7.88;;
26325;SDS011;14032;52.510;7.342;2023-11-19T05:25:10;57.30;;;8.35;;
26325;SDS011;14032;52.510;7.342;2023-11-19T05:27:36;59.25;;;8.63;;
26325;SDS011;14032;52.510;7.342;2023-11-19T05:30:03;63.63;;;8.07;;
26325;SDS011;14032;52.510;7.342;2023-11-19T05:32:32;59.95;;;8.50;;
26325;SDS011;14032;52.510;7.342;2023-11-19T05:34:58;68.20;;;8.48;;
26325;SDS011;14032;52.510;7.342;2023-11-19T05:37:23;61.05;;;9.63;;
26325;SDS011;14032;52.510;7.342;2023-11-19T05:39:50;59.58;;;8.60;;
26325;SDS011;14032;52.510;7.342;2023-11-19T05:42:15;65.22;;;8.10;;
26325;SDS011;14032;52.510;7.342;2023-11-19T05:44:42;57.42;;;9.45;;
26325;SDS011;14032;52.510;7.342;2023-11-19T05:47:07;58.58;;;8.10;;
26325;SDS011;14032;52.510;7.342;2023-11-19T05:49:33;54.60;;;8.18;;
26325;SDS011;14032;52.510;7.342;2023-11-19T05:51:58;67.55;;;8.63;;
26325;SDS011;14032;52.510;7.342;2023-11-19T05:54:24;60.15;;;8.40;;
26325;SDS011;14032;52.510;7.342;2023-11-19T05:56:51;63.45;;;7.60;;
26325;SDS011;14032;52.510;7.342;2023-11-19T05:59:19;65.07;;;8.05;;
26325;SDS011;14032;52.510;7.342;2023-11-19T06:01:45;67.03;;;8.10;;
26325;SDS011;14032;52.510;7.342;2023-11-19T06:04:10;72.03;;;9.00;;
26325;SDS011;14032;52.510;7.342;2023-11-19T06:06:36;65.63;;;8.27;;
26325;SDS011;14032;52.510;7.342;2023-11-19T06:09:02;69.22;;;8.07;;
26325;SDS011;14032;52.510;7.342;2023-11-19T06:11:28;76.93;;;10.13;;
26325;SDS011;14032;52.510;7.342;2023-11-19T06:13:54;64.78;;;7.63;;
26325;SDS011;14032;52.510;7.342;2023-11-19T06:16:20;66.22;;;8.30;;
26325;SDS011;14032;52.510;7.342;2023-11-19T06:18:45;62.53;;;8.57;;
26325;SDS011;14032;52.510;7.342;2023-11-19T06:21:11;62.85;;;8.35;;
26325;SDS011;14032;52.510;7.342;2023-11-19T06:23:37;66.55;;;7.82;;
26325;SDS011;14032;52.510;7.342;2023-11-19T06:26:03;71.72;;;8.93;;
26325;SDS011;14032;52.510;7.342;2023-11-19T06:28:30;75.95;;;8.15;;
26325;SDS011;14032;52.510;7.342;2023-11-19T06:30:59;74.00;;;8.50;;
26325;SDS011;14032;52.510;7.342;2023-11-19T06:33:24;65.25;;;8.88;;
26325;SDS011;14032;52.510;7.342;2023-11-19T06:35:52;85.43;;;9.43;;
26325;SDS011;14032;52.510;7.342;2023-11-19T06:38:17;54.53;;;8.68;;
26325;SDS011;14032;52.510;7.342;2023-11-19T06:40:46;54.42;;;7.30;;
26325;SDS011;14032;52.510;7.342;2023-11-19T06:43:12;61.13;;;7.85;;
26325;SDS011;14032;52.510;7.342;2023-11-19T06:45:39;60.97;;;8.07;;
26325;SDS011;14032;52.510;7.342;2023-11-19T06:48:04;67.88;;;10.40;;
26325;SDS011;14032;52.510;7.342;2023-11-19T06:50:33;57.40;;;8.00;;
26325;SDS011;14032;52.510;7.342;2023-11-19T06:52:59;60.78;;;7.97;;
26325;SDS011;14032;52.510;7.342;2023-11-19T06:55:24;60.42;;;7.45;;
26325;SDS011;14032;52.510;7.342;2023-11-19T06:57:51;69.07;;;8.48;;
26325;SDS011;14032;52.510;7.342;2023-11-19T07:00:16;63.25;;;8.60;;
26325;SDS011;14032;52.510;7.342;2023-11-19T07:02:46;62.28;;;8.00;;
26325;SDS011;14032;52.510;7.342;2023-11-19T07:05:11;58.35;;;7.30;;
26325;SDS011;14032;52.510;7.342;2023-11-19T07:07:38;71.68;;;9.10;;
26325;SDS011;14032;52.510;7.342;2023-11-19T07:10:05;70.32;;;10.65;;
26325;SDS011;14032;52.510;7.342;2023-11-19T07:12:33;59.38;;;8.23;;
26325;SDS011;14032;52.510;7.342;2023-11-19T07:15:00;62.53;;;7.38;;
26325;SDS011;14032;52.510;7.342;2023-11-19T07:17:27;55.85;;;7.13;;
26325;SDS011;14032;52.510;7.342;2023-11-19T07:19:52;51.90;;;8.45;;
26325;SDS011;14032;52.510;7.342;2023-11-19T07:22:18;56.20;;;7.25;;
26325;SDS011;14032;52.510;7.342;2023-11-19T07:24:43;54.33;;;7.13;;
26325;SDS011;14032;52.510;7.342;2023-11-19T07:27:09;57.20;;;7.88;;
26325;SDS011;14032;52.510;7.342;2023-11-19T07:29:35;60.85;;;7.75;;
26325;SDS011;14032;52.510;7.342;2023-11-19T07:32:00;56.30;;;7.75;;
26325;SDS011;14032;52.510;7.342;2023-11-19T07:34:30;46.30;;;6.68;;
26325;SDS011;14032;52.510;7.342;2023-11-19T07:36:55;62.08;;;8.10;;
26325;SDS011;14032;52.510;7.342;2023-11-19T07:39:27;58.40;;;7.85;;
26325;SDS011;14032;52.510;7.342;2023-11-19T07:41:52;48.75;;;7.97;;
26325;SDS011;14032;52.510;7.342;2023-11-19T07:44:19;56.65;;;7.82;;
26325;SDS011;14032;52.510;7.342;2023-11-19T07:46:46;52.55;;;6.72;;
26325;SDS011;14032;52.510;7.342;2023-11-19T07:49:13;47.80;;;7.53;;
26325;SDS011;14032;52.510;7.342;2023-11-19T07:51:38;69.15;;;9.20;;
26325;SDS011;14032;52.510;7.342;2023-11-19T07:54:04;56.47;;;6.88;;
26325;SDS011;14032;52.510;7.342;2023-11-19T07:56:30;54.88;;;7.60;;
26325;SDS011;14032;52.510;7.342;2023-11-19T07:58:59;67.03;;;7.88;;
26325;SDS011;14032;52.510;7.342;2023-11-19T08:01:24;48.30;;;6.72;;
26325;SDS011;14032;52.510;7.342;2023-11-19T08:03:50;64.43;;;8.20;;
26325;SDS011;14032;52.510;7.342;2023-11-19T08:06:16;58.05;;;7.85;;
26325;SDS011;14032;52.510;7.342;2023-11-19T08:08:41;56.72;;;7.60;;
26325;SDS011;14032;52.510;7.342;2023-11-19T08:11:07;61.05;;;7.97;;
26325;SDS011;14032;52.510;7.342;2023-11-19T08:13:33;53.00;;;7.88;;
26325;SDS011;14032;52.510;7.342;2023-11-19T08:15:59;53.05;;;6.85;;
26325;SDS011;14032;52.510;7.342;2023-11-19T08:18:24;51.97;;;7.30;;
26325;SDS011;14032;52.510;7.342;2023-11-19T08:20:50;51.03;;;7.15;;
26325;SDS011;14032;52.510;7.342;2023-11-19T08:23:18;59.92;;;8.68;;
26325;SDS011;14032;52.510;7.342;2023-11-19T08:25:44;55.90;;;7.82;;
26325;SDS011;14032;52.510;7.342;2023-11-19T08:28:10;57.05;;;6.95;;
26325;SDS011;14032;52.510;7.342;2023-11-19T08:30:35;49.05;;;7.47;;
26325;SDS011;14032;52.510;7.342;2023-11-19T08:33:01;46.45;;;7.18;;
26325;SDS011;14032;52.510;7.342;2023-11-19T08:35:36;50.53;;;7.82;;
26325;SDS011;14032;52.510;7.342;2023-11-19T08:38:03;56.00;;;8.15;;
26325;SDS011;14032;52.510;7.342;2023-11-19T08:40:29;46.78;;;6.85;;
26325;SDS011;14032;52.510;7.342;2023-11-19T08:42:55;40.70;;;6.72;;
26325;SDS011;14032;52.510;7.342;2023-11-19T08:45:21;46.53;;;6.78;;
26325;SDS011;14032;52.510;7.342;2023-11-19T08:47:46;50.72;;;7.13;;
26325;SDS011;14032;52.510;7.342;2023-11-19T08:50:12;52.60;;;7.82;;
26325;SDS011;14032;52.510;7.342;2023-11-19T08:52:40;43.63;;;6.78;;
26325;SDS011;14032;52.510;7.342;2023-11-19T08:55:06;58.85;;;7.63;;
26325;SDS011;14032;52.510;7.342;2023-11-19T08:57:32;44.08;;;6.90;;
26325;SDS011;14032;52.510;7.342;2023-11-19T08:59:58;46.90;;;7.43;;
26325;SDS011;14032;52.510;7.342;2023-11-19T09:02:23;44.47;;;6.25;;
26325;SDS011;14032;52.510;7.342;2023-11-19T09:04:52;54.13;;;7.75;;
26325;SDS011;14032;52.510;7.342;2023-11-19T09:07:21;58.58;;;9.43;;
26325;SDS011;14032;52.510;7.342;2023-11-19T09:09:46;53.42;;;8.13;;
26325;SDS011;14032;52.510;7.342;2023-11-19T09:12:12;50.00;;;7.07;;
26325;SDS011;14032;52.510;7.342;2023-11-19T09:14:38;45.53;;;7.65;;
26325;SDS011;14032;52.510;7.342;2023-11-19T09:17:04;49.10;;;8.00;;
26325;SDS011;14032;52.510;7.342;2023-11-19T09:19:31;47.50;;;6.82;;
26325;SDS011;14032;52.510;7.342;2023-11-19T09:21:58;47.03;;;6.38;;
26325;SDS011;14032;52.510;7.342;2023-11-19T09:24:23;52.70;;;7.70;;
26325;SDS011;14032;52.510;7.342;2023-11-19T09:26:49;47.75;;;6.97;;
26325;SDS011;14032;52.510;7.342;2023-11-19T09:29:14;55.10;;;6.72;;
26325;SDS011;14032;52.510;7.342;2023-11-19T09:31:40;45.10;;;7.13;;
26325;SDS011;14032;52.510;7.342;2023-11-19T09:34:05;49.95;;;7.63;;
26325;SDS011;14032;52.510;7.342;2023-11-19T09:36:31;50.10;;;6.30;;
26325;SDS011;14032;52.510;7.342;2023-11-19T09:38:57;55.95;;;8.48;;
26325;SDS011;14032;52.510;7.342;2023-11-19T09:41:27;54.17;;;8.05;;
26325;SDS011;14032;52.510;7.342;2023-11-19T09:43:56;58.85;;;7.70;;
26325;SDS011;14032;52.510;7.342;2023-11-19T09:46:22;43.20;;;7.20;;
26325;SDS011;14032;52.510;7.342;2023-11-19T09:48:52;44.75;;;7.45;;
26325;SDS011;14032;52.510;7.342;2023-11-19T09:51:19;43.55;;;6.97;;
26325;SDS011;14032;52.510;7.342;2023-11-19T09:53:49;53.72;;;7.68;;
26325;SDS011;14032;52.510;7.342;2023-11-19T09:56:15;45.85;;;7.03;;
26325;SDS011;14032;52.510;7.342;2023-11-19T09:58:43;51.05;;;6.20;;
26325;SDS011;14032;52.510;7.342;2023-11-19T10:01:09;50.17;;;6.68;;
26325;SDS011;14032;52.510;7.342;2023-11-19T10:03:39;43.10;;;5.85;;
26325;SDS011;14032;52.510;7.342;2023-11-19T10:06:06;48.75;;;6.90;;
26325;SDS011;14032;52.510;7.342;2023-11-19T10:08:33;46.03;;;6.95;;
26325;SDS011;14032;52.510;7.342;2023-11-19T10:10:59;52.97;;;6.68;;
26325;SDS011;14032;52.510;7.342;2023-11-19T10:13:28;37.67;;;6.55;;
26325;SDS011;14032;52.510;7.342;2023-11-19T10:15:54;42.95;;;6.18;;
26325;SDS011;14032;52.510;7.342;2023-11-19T10:18:26;44.28;;;6.53;;
26325;SDS011;14032;52.510;7.342;2023-11-19T10:20:51;36.83;;;6.18;;
26325;SDS011;14032;52.510;7.342;2023-11-19T10:23:18;45.10;;;7.72;;
26325;SDS011;14032;52.510;7.342;2023-11-19T10:25:44;56.13;;;7.43;;
26325;SDS011;14032;52.510;7.342;2023-11-19T10:28:10;49.15;;;6.57;;
26325;SDS011;14032;52.510;7.342;2023-11-19T10:30:35;42.95;;;7.07;;
26325;SDS011;14032;52.510;7.342;2023-11-19T10:33:05;38.05;;;6.60;;
26325;SDS011;14032;52.510;7.342;2023-11-19T10:35:54;43.90;;;6.47;;
26325;SDS011;14032;52.510;7.342;2023-11-19T10:38:26;40.67;;;7.05;;
26325;SDS011;14032;52.510;7.342;2023-11-19T10:40:55;54.90;;;6.40;;
26325;SDS011;14032;52.510;7.342;2023-11-19T10:43:20;53.15;;;6.70;;
26325;SDS011;14032;52.510;7.342;2023-11-19T10:45:50;52.45;;;7.53;;
26325;SDS011;14032;52.510;7.342;2023-11-19T10:48:16;46.67;;;6.38;;
26325;SDS011;14032;52.510;7.342;2023-11-19T10:50:43;48.70;;;7.40;;
26325;SDS011;14032;52.510;7.342;2023-11-19T10:53:10;48.70;;;7.88;;
26325;SDS011;14032;52.510;7.342;2023-11-19T10:55:39;43.55;;;7.40;;
26325;SDS011;14032;52.510;7.342;2023-11-19T10:58:05;41.95;;;6.00;;
26325;SDS011;14032;52.510;7.342;2023-11-19T11:03:18;45.10;;;6.57;;
26325;SDS011;14032;52.510;7.342;2023-11-19T11:05:48;41.13;;;6.70;;
26325;SDS011;14032;52.510;7.342;2023-11-19T11:08:15;40.92;;;6.35;;
26325;SDS011;14032;52.510;7.342;2023-11-19T11:10:45;50.50;;;7.60;;
26325;SDS011;14032;52.510;7.342;2023-11-19T11:18:11;43.83;;;6.55;;
26325;SDS011;14032;52.510;7.342;2023-11-19T11:20:38;47.22;;;8.68;;
26325;SDS011;14032;52.510;7.342;2023-11-19T11:28:41;37.33;;;6.18;;
26325;SDS011;14032;52.510;7.342;2023-11-19T11:31:36;47.15;;;5.95;;
26325;SDS011;14032;52.510;7.342;2023-11-19T11:34:39;45.85;;;6.80;;
26325;SDS011;14032;52.510;7.342;2023-11-19T11:37:19;34.47;;;5.90;;
26325;SDS011;14032;52.510;7.342;2023-11-19T11:39:51;47.80;;;7.07;;
26325;SDS011;14032;52.510;7.342;2023-11-19T11:45:04;45.85;;;5.68;;
26325;SDS011;14032;52.510;7.342;2023-11-19T11:50:12;48.80;;;6.88;;
26325;SDS011;14032;52.510;7.342;2023-11-19T11:57:56;49.83;;;6.47;;
26325;SDS011;14032;52.510;7.342;2023-11-19T12:00:31;40.60;;;5.82;;
26325;SDS011;14032;52.510;7.342;2023-11-19T12:02:57;48.97;;;6.15;;
26325;SDS011;14032;52.510;7.342;2023-11-19T12:05:25;40.85;;;5.45;;
26325;SDS011;14032;52.510;7.342;2023-11-19T12:07:59;46.85;;;5.97;;
26325;SDS011;14032;52.510;7.342;2023-11-19T12:10:28;46.08;;;5.72;;
26325;SDS011;14032;52.510;7.342;2023-11-19T12:13:03;42.65;;;5.60;;
26325;SDS011;14032;52.510;7.342;2023-11-19T12:15:56;43.10;;;6.40;;
26325;SDS011;14032;52.510;7.342;2023-11-19T12:18:23;48.40;;;6.82;;
26325;SDS011;14032;52.510;7.342;2023-11-19T12:20:52;46.00;;;6.35;;
26325;SDS011;14032;52.510;7.342;2023-11-19T12:23:18;40.78;;;5.40;;
26325;SDS011;14032;52.510;7.342;2023-11-19T12:25:44;47.55;;;6.45;;
26325;SDS011;14032;52.510;7.342;2023-11-19T12:28:13;40.42;;;6.28;;
26325;SDS011;14032;52.510;7.342;2023-11-19T12:30:39;50.40;;;6.07;;
26325;SDS011;14032;52.510;7.342;2023-11-19T12:33:08;47.72;;;6.28;;
26325;SDS011;14032;52.510;7.342;2023-11-19T12:38:19;50.20;;;7.15;;
26325;SDS011;14032;52.510;7.342;2023-11-19T12:41:04;41.55;;;5.80;;
26325;SDS011;14032;52.510;7.342;2023-11-19T12:43:29;37.47;;;4.82;;
26325;SDS011;14032;52.510;7.342;2023-11-19T12:45:55;43.95;;;6.28;;
26325;SDS011;14032;52.510;7.342;2023-11-19T12:48:21;41.10;;;7.32;;
26325;SDS011;14032;52.510;7.342;2023-11-19T12:50:51;41.72;;;6.10;;
26325;SDS011;14032;52.510;7.342;2023-11-19T12:53:24;34.55;;;5.45;;
26325;SDS011;14032;52.510;7.342;2023-11-19T12:55:51;32.63;;;5.63;;
26325;SDS011;14032;52.510;7.342;2023-11-19T12:58:31;41.33;;;5.97;;
26325;SDS011;14032;52.510;7.342;2023-11-19T13:03:30;47.25;;;6.25;;
26325;SDS011;14032;52.510;7.342;2023-11-19T13:06:06;37.65;;;6.00;;
26325;SDS011;14032;52.510;7.342;2023-11-19T13:08:42;41.10;;;5.63;;
26325;SDS011;14032;52.510;7.342;2023-11-19T13:11:15;40.63;;;6.10;;
26325;SDS011;14032;52.510;7.342;2023-11-19T13:13:59;37.33;;;8.27;;
26325;SDS011;14032;52.510;7.342;2023-11-19T13:16:36;48.00;;;6.93;;
26325;SDS011;14032;52.510;7.342;2023-11-19T13:19:03;43.67;;;7.10;;
26325;SDS011;14032;52.510;7.342;2023-11-19T13:21:29;37.88;;;6.30;;
26325;SDS011;14032;52.510;7.342;2023-11-19T13:44:34;44.85;;;5.47;;
26325;SDS011;14032;52.510;7.342;2023-11-19T13:47:00;41.72;;;5.22;;
26325;SDS011;14032;52.510;7.342;2023-11-19T13:49:25;48.35;;;6.40;;
26325;SDS011;14032;52.510;7.342;2023-11-19T13:51:52;42.88;;;6.93;;
26325;SDS011;14032;52.510;7.342;2023-11-19T13:54:19;47.90;;;6.30;;
26325;SDS011;14032;52.510;7.342;2023-11-19T13:56:46;50.80;;;6.03;;
26325;SDS011;14032;52.510;7.342;2023-11-19T13:59:11;40.20;;;5.82;;
26325;SDS011;14032;52.510;7.342;2023-11-19T14:01:37;49.88;;;9.13;;
26325;SDS011;14032;52.510;7.342;2023-11-19T14:04:02;53.33;;;10.27;;
26325;SDS011;14032;52.510;7.342;2023-11-19T14:06:28;48.58;;;9.00;;
26325;SDS011;14032;52.510;7.342;2023-11-19T14:08:54;46.83;;;7.85;;
26325;SDS011;14032;52.510;7.342;2023-11-19T14:11:20;50.70;;;7.78;;
26325;SDS011;14032;52.510;7.342;2023-11-19T14:13:45;47.45;;;9.77;;
26325;SDS011;14032;52.510;7.342;2023-11-19T14:16:11;38.13;;;6.00;;
26325;SDS011;14032;52.510;7.342;2023-11-19T14:18:37;42.70;;;6.70;;
26325;SDS011;14032;52.510;7.342;2023-11-19T14:21:03;50.42;;;6.88;;
26325;SDS011;14032;52.510;7.342;2023-11-19T14:23:29;44.28;;;6.10;;
26325;SDS011;14032;52.510;7.342;2023-11-19T14:25:54;59.60;;;6.70;;
26325;SDS011;14032;52.510;7.342;2023-11-19T14:28:20;38.08;;;5.75;;
26325;SDS011;14032;52.510;7.342;2023-11-19T14:30:45;46.78;;;6.20;;
26325;SDS011;14032;52.510;7.342;2023-11-19T14:33:13;47.85;;;6.30;;
26325;SDS011;14032;52.510;7.342;2023-11-19T14:35:38;54.67;;;6.55;;
26325;SDS011;14032;52.510;7.342;2023-11-19T14:38:04;48.85;;;6.35;;
26325;SDS011;14032;52.510;7.342;2023-11-19T14:40:32;41.95;;;4.70;;
26325;SDS011;14032;52.510;7.342;2023-11-19T14:42:57;48.92;;;6.55;;
26325;SDS011;14032;52.510;7.342;2023-11-19T14:45:23;40.03;;;6.07;;
26325;SDS011;14032;52.510;7.342;2023-11-19T14:47:48;32.30;;;6.60;;
26325;SDS011;14032;52.510;7.342;2023-11-19T14:50:14;35.95;;;7.35;;
26325;SDS011;14032;52.510;7.342;2023-11-19T14:52:40;41.08;;;7.20;;
26325;SDS011;14032;52.510;7.342;2023-11-19T14:55:06;38.13;;;6.93;;
26325;SDS011;14032;52.510;7.342;2023-11-19T14:57:31;44.60;;;5.63;;
26325;SDS011;14032;52.510;7.342;2023-11-19T14:59:57;30.48;;;5.78;;
26325;SDS011;14032;52.510;7.342;2023-11-19T15:02:23;38.50;;;6.60;;
26325;SDS011;14032;52.510;7.342;2023-11-19T15:04:48;50.22;;;7.38;;
26325;SDS011;14032;52.510;7.342;2023-11-19T15:07:14;37.10;;;5.50;;
26325;SDS011;14032;52.510;7.342;2023-11-19T15:09:39;36.88;;;6.47;;
26325;SDS011;14032;52.510;7.342;2023-11-19T15:12:05;55.00;;;11.20;;
26325;SDS011;14032;52.510;7.342;2023-11-19T15:14:31;53.58;;;9.88;;
26325;SDS011;14032;52.510;7.342;2023-11-19T15:16:56;48.83;;;8.90;;
26325;SDS011;14032;52.510;7.342;2023-11-19T15:19:23;59.72;;;10.70;;
26325;SDS011;14032;52.510;7.342;2023-11-19T15:21:48;52.97;;;9.27;;